Time;durP1;ratioP1;P1;durP2;ratioP2;P2;SDS_P1;SDS_P2;PMS_P1;PMS_P2;Temp;Humidity;BMP_temperature;BMP_pressure;BME280_temperature;BME280_humidity;BME280_pressure;Samples;Min_cycle;Max_cycle;Signal;HPM_P1;HPM_P2
2023/01/24 00:00:47;;;;;;;8.48;5.35;;;;;;;;;;5044883;28;20443;-49
2023/01/24 00:03:13;;;;;;;7.75;4.93;;;;;;;;;;5063331;28;20491;-49
2023/01/24 00:05:40;;;;;;;10.05;5.63;;;;;;;;;;5060683;28;20036;-48
2023/01/24 00:08:06;;;;;;;8.65;5.25;;;;;;;;;;5044157;28;20029;-49
2023/01/24 00:10:32;;;;;;;8.00;4.82;;;;;;;;;;5043014;28;20021;-50
2023/01/24 00:12:58;;;;;;;7.15;4.47;;;;;;;;;;5044565;28;20056;-49
2023/01/24 00:15:24;;;;;;;7.35;4.75;;;;;;;;;;5045476;28;20021;-50
2023/01/24 00:17:51;;;;;;;8.05;4.90;;;;;;;;;;5044191;28;20082;-50
2023/01/24 00:20:17;;;;;;;6.97;4.50;;;;;;;;;;5044051;28;20021;-51
2023/01/24 00:22:43;;;;;;;9.25;4.97;;;;;;;;;;5042947;28;20029;-48
2023/01/24 00:25:09;;;;;;;7.18;4.68;;;;;;;;;;5060363;28;20068;-52
2023/01/24 00:27:36;;;;;;;6.95;4.47;;;;;;;;;;5064518;28;20096;-49
2023/01/24 00:30:05;;;;;;;8.18;4.50;;;;;;;;;;5062343;28;20415;-49
2023/01/24 00:32:31;;;;;;;8.05;5.07;;;;;;;;;;5063720;28;20047;-49
2023/01/24 00:34:57;;;;;;;7.25;4.65;;;;;;;;;;5064830;28;20024;-50
2023/01/24 00:37:23;;;;;;;7.45;4.78;;;;;;;;;;5044340;28;20094;-53
2023/01/24 00:39:49;;;;;;;8.02;5.00;;;;;;;;;;5043775;28;20556;-52
2023/01/24 00:42:16;;;;;;;7.90;4.63;;;;;;;;;;5046523;28;20035;-50
2023/01/24 00:44:43;;;;;;;8.60;5.03;;;;;;;;;;5043740;28;20112;-49
2023/01/24 00:47:10;;;;;;;8.55;5.05;;;;;;;;;;5043604;28;20025;-48
2023/01/24 00:49:36;;;;;;;8.23;4.88;;;;;;;;;;5043959;28;20048;-49
2023/01/24 00:52:03;;;;;;;8.60;5.00;;;;;;;;;;5043857;28;20024;-48
2023/01/24 00:54:29;;;;;;;8.02;4.80;;;;;;;;;;5026014;28;20025;-47
2023/01/24 00:56:56;;;;;;;9.18;5.25;;;;;;;;;;5044914;28;20028;-48
2023/01/24 00:59:22;;;;;;;8.25;5.07;;;;;;;;;;5043751;28;20030;-50
2023/01/24 01:01:49;;;;;;;6.53;4.53;;;;;;;;;;5042469;28;20530;-48
2023/01/24 01:04:15;;;;;;;8.85;4.55;;;;;;;;;;5062300;28;20132;-48
2023/01/24 06:14:15;;;;;;;15.68;8.63;;;;;;;;;;5028675;28;20048;-47
2023/01/24 06:16:42;;;;;;;14.85;8.10;;;;;;;;;;5029837;28;20029;-47
2023/01/24 06:19:08;;;;;;;12.25;7.40;;;;;;;;;;5029692;28;20025;-50
2023/01/24 06:21:37;;;;;;;12.60;7.43;;;;;;;;;;5029823;28;20554;-48
2023/01/24 06:24:04;;;;;;;11.68;6.78;;;;;;;;;;5029637;28;20036;-50
2023/01/24 06:26:31;;;;;;;11.23;6.70;;;;;;;;;;5029934;28;20049;-48
2023/01/24 06:28:57;;;;;;;11.38;6.65;;;;;;;;;;5029456;28;20022;-48
2023/01/24 06:31:44;;;;;;;10.70;5.97;;;;;;;;;;5029571;28;20597;-47
2023/01/24 06:34:28;;;;;;;9.98;5.88;;;;;;;;;;5029888;28;20029;-50
2023/01/24 06:37:12;;;;;;;9.05;5.45;;;;;;;;;;5047543;28;20032;-48
2023/01/24 06:39:39;;;;;;;10.00;5.85;;;;;;;;;;5049208;28;20029;-48
2023/01/24 06:42:06;;;;;;;11.38;6.10;;;;;;;;;;5048978;28;20500;-49
2023/01/24 06:44:32;;;;;;;8.90;5.63;;;;;;;;;;5049477;28;20029;-48
2023/01/24 06:46:58;;;;;;;8.73;5.53;;;;;;;;;;5048977;28;20500;-47
2023/01/24 06:49:24;;;;;;;10.15;5.88;;;;;;;;;;5049113;28;20033;-47
2023/01/24 06:51:51;;;;;;;9.57;5.88;;;;;;;;;;5048638;28;20032;-48
2023/01/24 06:54:17;;;;;;;10.10;5.85;;;;;;;;;;5049089;28;20029;-50
2023/01/24 06:56:44;;;;;;;10.70;6.18;;;;;;;;;;5049036;28;20778;-49
2023/01/24 06:59:10;;;;;;;11.15;6.30;;;;;;;;;;5047746;28;20029;-50
2023/01/24 07:01:36;;;;;;;10.80;6.53;;;;;;;;;;5048830;28;20117;-50
2023/01/24 07:04:02;;;;;;;11.50;6.78;;;;;;;;;;5048030;28;20107;-48
2023/01/24 07:06:29;;;;;;;10.48;6.22;;;;;;;;;;5048272;28;20499;-48
2023/01/24 07:08:55;;;;;;;10.93;6.70;;;;;;;;;;5048329;28;20024;-48
2023/01/24 07:11:22;;;;;;;10.25;6.43;;;;;;;;;;5049242;28;20033;-47
2023/01/24 07:13:49;;;;;;;12.43;7.18;;;;;;;;;;5049236;28;20036;-49
2023/01/24 07:16:15;;;;;;;10.68;6.63;;;;;;;;;;5048796;28;20036;-49
2023/01/24 07:18:41;;;;;;;10.38;6.47;;;;;;;;;;5047900;28;20112;-49
2023/01/24 07:21:08;;;;;;;9.98;6.35;;;;;;;;;;5046603;28;20025;-48
2023/01/24 07:23:34;;;;;;;12.43;7.38;;;;;;;;;;5049807;28;20053;-51
2023/01/24 07:26:01;;;;;;;17.20;9.63;;;;;;;;;;5049672;28;20056;-48
2023/01/24 07:28:27;;;;;;;20.98;11.07;;;;;;;;;;5049440;28;20035;-51
2023/01/24 07:30:53;;;;;;;17.55;10.05;;;;;;;;;;5066890;28;20056;-47
2023/01/24 07:33:20;;;;;;;17.23;9.85;;;;;;;;;;5050706;28;20091;-48
2023/01/24 07:35:46;;;;;;;14.15;8.68;;;;;;;;;;5049983;28;20028;-52
2023/01/24 07:38:12;;;;;;;14.00;8.80;;;;;;;;;;5049249;28;20025;-51
2023/01/24 07:40:38;;;;;;;14.02;7.93;;;;;;;;;;5049384;28;20057;-49
2023/01/24 07:43:05;;;;;;;13.60;7.35;;;;;;;;;;5049207;28;20029;-49
2023/01/24 07:45:32;;;;;;;13.80;7.38;;;;;;;;;;5065846;28;20029;-49
2023/01/24 07:48:00;;;;;;;13.52;7.90;;;;;;;;;;5051990;28;20037;-47
2023/01/24 07:50:26;;;;;;;12.68;7.70;;;;;;;;;;5065947;28;20035;-50
2023/01/24 07:52:53;;;;;;;15.13;8.25;;;;;;;;;;5054471;28;20032;-48
2023/01/24 07:55:20;;;;;;;14.63;7.55;;;;;;;;;;5049351;28;20103;-48
2023/01/24 07:57:46;;;;;;;13.63;7.53;;;;;;;;;;5029227;28;20076;-48
2023/01/24 08:00:13;;;;;;;12.52;7.72;;;;;;;;;;5048475;28;20013;-50
2023/01/24 08:02:39;;;;;;;12.43;6.85;;;;;;;;;;5048768;28;20040;-49
2023/01/24 08:05:06;;;;;;;12.65;7.60;;;;;;;;;;5049115;28;20033;-48
2023/01/24 08:07:32;;;;;;;11.38;6.80;;;;;;;;;;5047508;28;20434;-49
2023/01/24 08:09:58;;;;;;;11.75;7.18;;;;;;;;;;5036909;28;20033;-47
2023/01/24 08:12:24;;;;;;;13.75;7.47;;;;;;;;;;5029758;28;20116;-50
2023/01/24 08:14:50;;;;;;;11.98;7.88;;;;;;;;;;5030105;28;20033;-51
2023/01/24 08:17:17;;;;;;;10.32;6.75;;;;;;;;;;5044486;28;20582;-47
2023/01/24 08:19:43;;;;;;;13.10;7.45;;;;;;;;;;5049012;28;20026;-48
2023/01/24 08:22:09;;;;;;;11.77;6.85;;;;;;;;;;5049546;28;20044;-49
2023/01/24 08:24:35;;;;;;;12.70;7.22;;;;;;;;;;5047103;28;20494;-49
2023/01/24 08:27:02;;;;;;;11.95;6.90;;;;;;;;;;5049570;28;20508;-49
2023/01/24 08:29:28;;;;;;;11.52;6.80;;;;;;;;;;5049436;28;20021;-51
2023/01/24 08:31:55;;;;;;;12.05;7.13;;;;;;;;;;5048327;28;20025;-47
2023/01/24 08:34:21;;;;;;;12.85;7.13;;;;;;;;;;5049720;28;20062;-48
2023/01/24 08:36:47;;;;;;;11.55;7.53;;;;;;;;;;5049768;28;20029;-47
2023/01/24 08:39:13;;;;;;;12.30;7.13;;;;;;;;;;5049370;28;20017;-49
2023/01/24 08:41:39;;;;;;;13.00;7.45;;;;;;;;;;5049601;28;20033;-47
2023/01/24 08:44:05;;;;;;;11.77;7.07;;;;;;;;;;5047856;28;20060;-47
2023/01/24 08:46:31;;;;;;;14.07;7.47;;;;;;;;;;5048527;28;20554;-48
2023/01/24 08:48:58;;;;;;;13.35;7.28;;;;;;;;;;5048123;28;20033;-48
2023/01/24 08:51:24;;;;;;;12.93;6.75;;;;;;;;;;5048159;28;20037;-49
2023/01/24 08:53:50;;;;;;;12.05;6.57;;;;;;;;;;5047956;28;20025;-48
2023/01/24 08:56:16;;;;;;;12.80;6.80;;;;;;;;;;5048302;28;20100;-49
2023/01/24 08:58:43;;;;;;;13.15;7.18;;;;;;;;;;5046416;28;20048;-48
2023/01/24 09:01:10;;;;;;;11.68;7.03;;;;;;;;;;5048023;28;20380;-49
2023/01/24 09:03:36;;;;;;;16.25;8.93;;;;;;;;;;5048007;28;20022;-47
2023/01/24 09:06:02;;;;;;;13.77;8.00;;;;;;;;;;5047651;28;20020;-47
2023/01/24 09:08:28;;;;;;;12.55;7.25;;;;;;;;;;5047972;28;20108;-50
2023/01/24 09:10:54;;;;;;;13.40;8.02;;;;;;;;;;5048103;28;20040;-49
2023/01/24 09:13:20;;;;;;;16.85;8.70;;;;;;;;;;5046256;28;20075;-48
2023/01/24 09:15:46;;;;;;;21.17;11.60;;;;;;;;;;5034110;28;20069;-47
2023/01/24 09:18:12;;;;;;;21.95;11.27;;;;;;;;;;5030974;28;20045;-48
2023/01/24 09:20:38;;;;;;;18.45;10.02;;;;;;;;;;5030965;28;20369;-48
2023/01/24 09:23:11;;;;;;;15.90;9.27;;;;;;;;;;5051499;28;20067;-50
2023/01/24 09:25:37;;;;;;;16.42;9.48;;;;;;;;;;5043193;28;20113;-49
2023/01/24 09:28:03;;;;;;;14.10;8.65;;;;;;;;;;5030721;28;20037;-50
2023/01/24 09:30:29;;;;;;;14.30;8.10;;;;;;;;;;5029797;28;20051;-47
2023/01/24 09:32:55;;;;;;;15.80;8.93;;;;;;;;;;5030802;28;20025;-50
2023/01/24 09:35:21;;;;;;;14.32;8.18;;;;;;;;;;5029491;28;20105;-49
2023/01/24 09:37:47;;;;;;;13.52;7.68;;;;;;;;;;5035328;28;20100;-50
2023/01/24 09:40:26;;;;;;;14.50;8.70;;;;;;;;;;5030567;28;20482;-47
2023/01/24 09:42:58;;;;;;;11.43;6.63;;;;;;;;;;5030521;28;20397;-49
2023/01/24 09:45:33;;;;;;;11.73;7.38;;;;;;;;;;5031714;28;20025;-48
2023/01/24 09:48:00;;;;;;;11.95;7.10;;;;;;;;;;5031466;28;20036;-48
2023/01/24 09:50:35;;;;;;;9.93;6.40;;;;;;;;;;5029440;28;20025;-49
2023/01/24 09:53:02;;;;;;;11.15;6.53;;;;;;;;;;5029902;28;20048;-50
2023/01/24 09:55:42;;;;;;;12.73;7.53;;;;;;;;;;5031325;28;20067;-50
2023/01/24 09:58:26;;;;;;;11.85;6.55;;;;;;;;;;5031226;28;20396;-49
2023/01/24 10:00:52;;;;;;;;;;;;;;;;;;5031839;28;20489;-49
2023/01/24 10:03:23;;;;;;;13.65;8.20;;;;;;;;;;5031413;28;19963;-51
2023/01/24 10:05:53;;;;;;;12.57;7.63;;;;;;;;;;5031654;28;20084;-48
2023/01/24 10:08:31;;;;;;;12.32;7.32;;;;;;;;;;5031401;28;20750;-47
2023/01/24 10:11:26;;;;;;;11.18;6.47;;;;;;;;;;5030873;28;20026;-48
2023/01/24 10:14:00;;;;;;;11.70;7.20;;;;;;;;;;4985810;28;20042;-48
2023/01/24 10:16:34;;;;;;;12.20;7.28;;;;;;;;;;5031232;28;20041;-48
2023/01/24 10:19:03;;;;;;;11.80;7.13;;;;;;;;;;5031025;28;20065;-49
2023/01/24 10:21:48;;;;;;;9.38;6.20;;;;;;;;;;5031018;28;20087;-48
2023/01/24 10:24:35;;;;;;;10.30;6.78;;;;;;;;;;5031122;28;20105;-48
2023/01/24 10:27:01;;;;;;;14.00;8.00;;;;;;;;;;5030687;28;20030;-48
2023/01/24 10:29:30;;;;;;;13.85;8.35;;;;;;;;;;5046098;28;20048;-49
2023/01/24 10:32:02;;;;;;;14.32;8.98;;;;;;;;;;5050677;28;20029;-49
2023/01/24 10:34:44;;;;;;;17.45;9.23;;;;;;;;;;5049686;28;20070;-48
2023/01/24 10:37:10;;;;;;;13.85;8.43;;;;;;;;;;5049697;28;20104;-47
2023/01/24 10:39:37;;;;;;;16.60;9.50;;;;;;;;;;5049413;28;20481;-50
2023/01/24 10:42:11;;;;;;;13.50;8.57;;;;;;;;;;5049495;28;20076;-47
2023/01/24 10:44:38;;;;;;;;;;;;;;;;;;5050267;28;20035;-48
2023/01/24 10:47:04;;;;;;;13.80;8.32;;;;;;;;;;5049553;28;19908;-49
2023/01/24 10:49:32;;;;;;;13.63;8.43;;;;;;;;;;5050184;28;20029;-48
2023/01/24 10:52:09;;;;;;;11.23;7.38;;;;;;;;;;5047915;28;20693;-48
2023/01/24 10:54:55;;;;;;;14.20;7.82;;;;;;;;;;5050284;28;20392;-51
2023/01/24 10:57:53;;;;;;;11.68;6.88;;;;;;;;;;5050037;28;20013;-48
2023/01/24 11:00:29;;;;;;;13.20;7.72;;;;;;;;;;5016826;28;20055;-51
2023/01/24 11:02:59;;;;;;;12.45;8.00;;;;;;;;;;5049986;28;20025;-48
2023/01/24 11:05:26;;;;;;;12.20;7.88;;;;;;;;;;5050299;28;20044;-49
2023/01/24 11:07:55;;;;;;;11.90;7.00;;;;;;;;;;5049772;28;20112;-48
2023/01/24 11:10:26;;;;;;;11.48;7.13;;;;;;;;;;5049944;28;20025;-49
2023/01/24 11:12:57;;;;;;;12.85;7.97;;;;;;;;;;5049685;28;20037;-50
2023/01/24 11:15:25;;;;;;;12.77;7.75;;;;;;;;;;5049197;28;20531;-49
2023/01/24 11:18:14;;;;;;;12.70;7.25;;;;;;;;;;5049617;28;20029;-50
2023/01/24 11:20:42;;;;;;;10.68;6.28;;;;;;;;;;5038298;28;20041;-49
2023/01/24 11:23:13;;;;;;;10.90;6.50;;;;;;;;;;5054460;28;20051;-48
2023/01/24 11:25:52;;;;;;;10.07;6.68;;;;;;;;;;5048109;28;20043;-51
2023/01/24 11:28:28;;;;;;;8.45;5.80;;;;;;;;;;5049623;28;20031;-48
2023/01/24 11:30:59;;;;;;;9.85;6.35;;;;;;;;;;5049492;28;20714;-50
2023/01/24 11:33:40;;;;;;;8.52;5.85;;;;;;;;;;5049481;28;20575;-48
2023/01/24 11:36:23;;;;;;;9.93;6.10;;;;;;;;;;5047950;28;20033;-48
2023/01/24 11:38:49;;;;;;;9.07;5.90;;;;;;;;;;5032014;28;20025;-49
2023/01/24 11:41:20;;;;;;;10.70;6.35;;;;;;;;;;5049629;28;20381;-48
2023/01/24 11:43:55;;;;;;;9.02;5.18;;;;;;;;;;5049229;28;20787;-48
2023/01/24 11:46:22;;;;;;;9.40;5.65;;;;;;;;;;5049261;28;20025;-49
2023/01/24 11:48:53;;;;;;;9.30;5.72;;;;;;;;;;5049636;28;20025;-50
2023/01/24 11:51:19;;;;;;;10.00;6.30;;;;;;;;;;5049441;28;20025;-48
2023/01/24 11:53:55;;;;;;;9.80;5.78;;;;;;;;;;5049445;28;20029;-50
2023/01/24 11:56:31;;;;;;;9.93;5.80;;;;;;;;;;5049244;28;20029;-51
2023/01/24 11:58:57;;;;;;;10.07;6.03;;;;;;;;;;5049483;28;20025;-48
2023/01/24 12:01:35;;;;;;;9.10;5.38;;;;;;;;;;5049149;28;20032;-51
2023/01/24 12:04:22;;;;;;;9.68;5.95;;;;;;;;;;5048926;28;20032;-50
2023/01/24 12:06:54;;;;;;;9.35;6.07;;;;;;;;;;5008222;28;20493;-51
2023/01/24 12:09:24;;;;;;;10.90;6.55;;;;;;;;;;5029625;28;20097;-47
2023/01/24 12:11:51;;;;;;;11.32;7.05;;;;;;;;;;5045872;28;20109;-51
2023/01/24 12:14:35;;;;;;;10.32;6.38;;;;;;;;;;5047274;28;20029;-49
2023/01/24 12:17:20;;;;;;;11.13;6.82;;;;;;;;;;5034196;28;20032;-50
2023/01/24 12:19:46;;;;;;;14.32;7.25;;;;;;;;;;5045604;28;20029;-49
2023/01/24 12:22:20;;;;;;;14.88;7.85;;;;;;;;;;5047587;28;20025;-49
2023/01/24 12:24:48;;;;;;;14.07;7.85;;;;;;;;;;5047763;28;20033;-49
2023/01/24 12:27:16;;;;;;;14.18;7.47;;;;;;;;;;5048197;28;20439;-50
2023/01/24 12:29:45;;;;;;;10.75;6.40;;;;;;;;;;5047255;28;20033;-48
2023/01/24 12:32:17;;;;;;;10.52;6.47;;;;;;;;;;5044361;28;20395;-48
2023/01/24 12:34:54;;;;;;;8.93;5.82;;;;;;;;;;5046293;28;20406;-48
2023/01/24 12:37:28;;;;;;;9.20;5.43;;;;;;;;;;5046714;28;20075;-52
2023/01/24 12:39:54;;;;;;;;;;;;;;;;;;5046444;28;20542;-49
2023/01/24 12:42:40;;;;;;;8.27;5.20;;;;;;;;;;5045444;28;19913;-51
2023/01/24 12:45:12;;;;;;;10.10;6.25;;;;;;;;;;5006194;28;20053;-50
2023/01/24 12:47:41;;;;;;;9.05;5.82;;;;;;;;;;5046778;28;20104;-50
2023/01/24 12:50:22;;;;;;;8.57;5.10;;;;;;;;;;5047453;28;20036;-50
2023/01/24 12:52:51;;;;;;;8.80;5.68;;;;;;;;;;5030242;28;20067;-50
2023/01/24 12:55:21;;;;;;;8.40;5.32;;;;;;;;;;5046246;28;20025;-51
2023/01/24 12:57:52;;;;;;;7.38;5.10;;;;;;;;;;5047089;28;20606;-49
2023/01/24 13:00:24;;;;;;;8.65;5.40;;;;;;;;;;5046993;28;20037;-50
2023/01/24 13:02:50;;;;;;;8.80;5.93;;;;;;;;;;5046822;28;20071;-51
2023/01/24 13:05:24;;;;;;;8.20;5.45;;;;;;;;;;5045845;28;20500;-51
2023/01/24 13:08:07;;;;;;;9.20;5.60;;;;;;;;;;5045863;28;20037;-49
2023/01/24 13:10:45;;;;;;;9.30;5.60;;;;;;;;;;5031594;28;20025;-47
2023/01/24 13:13:19;;;;;;;9.55;5.97;;;;;;;;;;5045768;28;20111;-49
2023/01/24 13:15:46;;;;;;;10.13;6.05;;;;;;;;;;5047477;28;20578;-52
2023/01/24 13:18:28;;;;;;;10.20;6.57;;;;;;;;;;5045404;28;20112;-52
2023/01/24 13:21:00;;;;;;;9.88;6.20;;;;;;;;;;5047631;28;20037;-51
2023/01/24 13:23:42;;;;;;;8.80;5.57;;;;;;;;;;5046948;28;20548;-49
2023/01/24 13:26:11;;;;;;;9.70;6.53;;;;;;;;;;5044379;28;20473;-50
2023/01/24 13:28:38;;;;;;;9.88;6.45;;;;;;;;;;5044715;28;20043;-49
2023/01/24 13:31:13;;;;;;;10.13;6.22;;;;;;;;;;5043089;28;20202;-49
2023/01/24 13:33:54;;;;;;;8.30;5.70;;;;;;;;;;5044353;28;20691;-48
2023/01/24 13:36:22;;;;;;;9.52;6.03;;;;;;;;;;5031632;28;20024;-51
2023/01/24 13:38:49;;;;;;;9.35;6.03;;;;;;;;;;5042754;28;20029;-50
2023/01/24 13:41:32;;;;;;;6.97;5.00;;;;;;;;;;5043398;28;20424;-50
2023/01/24 13:44:07;;;;;;;8.52;5.47;;;;;;;;;;5042375;28;20064;-50
2023/01/24 13:46:43;;;;;;;8.10;5.63;;;;;;;;;;5043497;28;20025;-50
2023/01/24 13:49:28;;;;;;;8.13;5.28;;;;;;;;;;5044401;28;20621;-47
2023/01/24 13:51:55;;;;;;;8.20;5.68;;;;;;;;;;5044137;28;20159;-49
2023/01/24 13:54:21;;;;;;;8.90;5.78;;;;;;;;;;5043627;28;20033;-50
2023/01/24 13:57:06;;;;;;;7.90;5.22;;;;;;;;;;5044123;28;20455;-48
2023/01/24 13:59:36;;;;;;;8.63;5.55;;;;;;;;;;5044675;28;20039;-50
2023/01/24 14:02:02;;;;;;;9.65;6.18;;;;;;;;;;5045517;28;20091;-49
2023/01/24 14:04:38;;;;;;;10.73;6.07;;;;;;;;;;5046001;28;20638;-47
2023/01/24 14:07:17;;;;;;;9.80;6.25;;;;;;;;;;5048677;28;20391;-51
2023/01/24 14:09:43;;;;;;;8.57;5.43;;;;;;;;;;5048691;28;20448;-47
2023/01/24 14:12:15;;;;;;;9.35;5.57;;;;;;;;;;5046921;28;20499;-47
2023/01/24 14:15:01;;;;;;;7.57;5.15;;;;;;;;;;5029698;28;20033;-51
2023/01/24 14:17:36;;;;;;;9.88;6.30;;;;;;;;;;5044727;28;20120;-47
2023/01/24 14:20:03;;;;;;;8.90;5.80;;;;;;;;;;5048827;28;20027;-47
2023/01/24 14:22:34;;;;;;;9.38;5.75;;;;;;;;;;5048017;28;20025;-47
2023/01/24 14:25:15;;;;;;;7.93;4.90;;;;;;;;;;5047725;28;20037;-49
2023/01/24 14:27:49;;;;;;;8.18;5.55;;;;;;;;;;5034000;28;20083;-47
2023/01/24 14:30:18;;;;;;;8.75;5.95;;;;;;;;;;5048065;28;20028;-49
2023/01/24 14:32:47;;;;;;;8.77;5.43;;;;;;;;;;5045138;28;20112;-47
2023/01/24 14:35:19;;;;;;;8.48;5.25;;;;;;;;;;5048558;28;20024;-48
2023/01/24 14:37:46;;;;;;;8.68;5.60;;;;;;;;;;5047581;28;20408;-50
2023/01/24 14:40:18;;;;;;;8.68;5.40;;;;;;;;;;5048436;28;20071;-52
2023/01/24 14:42:44;;;;;;;7.72;4.82;;;;;;;;;;5047922;28;20036;-49
2023/01/24 14:45:14;;;;;;;9.13;5.82;;;;;;;;;;5048379;28;20044;-48
2023/01/24 14:47:46;;;;;;;9.20;5.50;;;;;;;;;;5047334;28;20040;-51
2023/01/24 14:50:20;;;;;;;13.25;6.68;;;;;;;;;;5047763;28;20159;-47
2023/01/24 14:52:46;;;;;;;10.30;6.35;;;;;;;;;;5045823;28;20106;-47
2023/01/24 14:55:18;;;;;;;10.43;6.00;;;;;;;;;;5047255;28;20025;-47
2023/01/24 14:57:44;;;;;;;11.50;7.18;;;;;;;;;;5047836;28;20025;-49
2023/01/24 15:00:13;;;;;;;9.48;5.90;;;;;;;;;;5047106;28;20025;-48
2023/01/24 15:03:01;;;;;;;10.57;6.43;;;;;;;;;;5047359;28;20029;-49
2023/01/24 15:05:29;;;;;;;10.13;6.30;;;;;;;;;;5045976;28;20099;-49
2023/01/24 15:07:56;;;;;;;10.45;6.22;;;;;;;;;;5023699;28;20030;-47
2023/01/24 15:10:42;;;;;;;10.02;6.38;;;;;;;;;;5031834;28;20074;-50
2023/01/24 15:13:19;;;;;;;8.95;6.18;;;;;;;;;;5046326;28;20029;-51
2023/01/24 15:15:45;;;;;;;9.05;5.72;;;;;;;;;;5046687;28;20036;-50
2023/01/24 15:18:37;;;;;;;9.80;5.93;;;;;;;;;;5047114;28;20028;-50
2023/01/24 15:21:03;;;;;;;13.38;7.18;;;;;;;;;;5044463;28;20508;-50
2023/01/24 15:23:31;;;;;;;10.60;6.40;;;;;;;;;;5046173;28;20503;-51
2023/01/24 15:25:58;;;;;;;10.05;6.50;;;;;;;;;;5046390;28;20039;-48
2023/01/24 15:28:29;;;;;;;10.43;6.18;;;;;;;;;;5046689;28;20033;-51
2023/01/24 15:30:59;;;;;;;10.38;6.95;;;;;;;;;;5046880;28;20028;-47
2023/01/24 15:33:39;;;;;;;11.60;7.32;;;;;;;;;;5043457;28;20029;-51
2023/01/24 15:36:07;;;;;;;13.98;8.20;;;;;;;;;;5045794;28;20025;-48
2023/01/24 15:38:41;;;;;;;17.63;9.52;;;;;;;;;;5047026;28;20147;-51
2023/01/24 15:41:20;;;;;;;22.10;11.30;;;;;;;;;;5047777;28;20033;-48
2023/01/24 15:44:06;;;;;;;21.40;11.15;;;;;;;;;;5046533;28;20889;-48
2023/01/24 15:49:36;;;;;;;20.05;10.15;;;;;;;;;;5046218;28;20134;-48
2023/01/24 15:52:11;;;;;;;20.77;10.55;;;;;;;;;;5045927;28;20067;-47
2023/01/24 15:54:38;;;;;;;23.23;11.25;;;;;;;;;;5043217;28;20033;-48
2023/01/24 15:57:06;;;;;;;17.35;9.48;;;;;;;;;;5045189;28;20052;-48
2023/01/24 15:59:32;;;;;;;21.65;9.88;;;;;;;;;;5045300;28;20090;-48
2023/01/24 16:02:02;;;;;;;18.83;9.60;;;;;;;;;;5044592;28;20032;-51
2023/01/24 16:04:29;;;;;;;19.75;9.82;;;;;;;;;;5045075;28;20083;-48
2023/01/24 16:06:55;;;;;;;18.40;9.73;;;;;;;;;;5043951;28;20024;-47
2023/01/24 16:09:21;;;;;;;17.05;8.82;;;;;;;;;;5044291;28;20020;-50
2023/01/24 16:11:48;;;;;;;14.18;8.13;;;;;;;;;;5042901;28;20063;-48
2023/01/24 16:14:16;;;;;;;14.25;7.30;;;;;;;;;;5043002;28;20032;-48
2023/01/24 16:16:42;;;;;;;15.05;8.45;;;;;;;;;;5045612;28;20077;-49
2023/01/24 16:19:16;;;;;;;13.32;7.97;;;;;;;;;;5045145;28;20526;-50
2023/01/24 16:21:44;;;;;;;16.58;9.13;;;;;;;;;;5043340;28;20102;-51
2023/01/24 16:24:10;;;;;;;14.13;8.25;;;;;;;;;;5043584;28;20039;-50
2023/01/24 16:26:36;;;;;;;16.52;7.90;;;;;;;;;;5045540;28;20047;-51
2023/01/24 16:29:02;;;;;;;11.18;6.72;;;;;;;;;;5045179;28;20440;-51
2023/01/24 16:31:28;;;;;;;10.98;6.82;;;;;;;;;;5044161;28;20056;-50
2023/01/24 16:33:54;;;;;;;12.10;6.82;;;;;;;;;;5043222;28;20566;-49
2023/01/24 16:36:20;;;;;;;10.35;5.63;;;;;;;;;;5043364;28;20024;-52
2023/01/24 16:38:47;;;;;;;11.05;6.65;;;;;;;;;;5040457;28;20028;-51
2023/01/24 16:41:14;;;;;;;9.70;5.72;;;;;;;;;;5042808;28;20033;-51
2023/01/24 16:43:43;;;;;;;10.65;6.47;;;;;;;;;;5045705;28;20586;-51
2023/01/24 16:46:16;;;;;;;8.95;6.28;;;;;;;;;;5046167;28;20028;-50
2023/01/24 16:48:42;;;;;;;9.70;5.90;;;;;;;;;;5043608;28;20492;-48
2023/01/24 16:51:12;;;;;;;9.60;5.78;;;;;;;;;;5044455;28;20072;-50
2023/01/24 16:53:38;;;;;;;9.00;5.38;;;;;;;;;;5044357;28;20047;-49
2023/01/24 16:56:04;;;;;;;11.20;6.38;;;;;;;;;;5045072;28;20451;-49
2023/01/24 16:58:30;;;;;;;10.25;6.05;;;;;;;;;;5046456;28;20021;-48
2023/01/24 17:00:56;;;;;;;10.70;6.07;;;;;;;;;;5044826;28;20547;-48
2023/01/24 17:03:22;;;;;;;10.38;5.80;;;;;;;;;;5045114;28;20029;-50
2023/01/24 17:05:48;;;;;;;10.75;6.68;;;;;;;;;;5045027;28;20049;-48
2023/01/24 17:08:14;;;;;;;12.65;7.00;;;;;;;;;;5044971;28;20035;-49
2023/01/24 17:10:42;;;;;;;10.32;6.15;;;;;;;;;;5045028;28;20037;-50
2023/01/24 17:13:10;;;;;;;10.52;6.57;;;;;;;;;;5044642;28;20411;-49
2023/01/24 17:15:37;;;;;;;9.65;6.00;;;;;;;;;;5050481;28;20060;-48
2023/01/24 17:18:04;;;;;;;10.30;6.53;;;;;;;;;;5055051;28;20024;-51
2023/01/24 17:20:30;;;;;;;8.65;6.10;;;;;;;;;;5054817;28;20017;-51
2023/01/24 17:22:59;;;;;;;11.63;6.78;;;;;;;;;;5045581;28;20025;-49
2023/01/24 17:25:25;;;;;;;12.32;7.22;;;;;;;;;;5045358;28;20039;-51
2023/01/24 17:27:51;;;;;;;11.80;6.68;;;;;;;;;;5027293;28;20029;-49
2023/01/24 17:30:17;;;;;;;9.60;6.05;;;;;;;;;;5044686;28;20044;-47
2023/01/24 17:32:43;;;;;;;9.48;6.20;;;;;;;;;;5045556;28;20456;-49
2023/01/24 17:35:10;;;;;;;10.77;6.60;;;;;;;;;;5044613;28;20056;-50
2023/01/24 17:37:36;;;;;;;9.18;5.60;;;;;;;;;;5048215;28;20028;-49
2023/01/24 17:40:03;;;;;;;9.15;5.82;;;;;;;;;;5048765;28;20101;-51
2023/01/24 17:42:29;;;;;;;8.63;5.80;;;;;;;;;;5049206;28;20025;-50
2023/01/24 17:44:56;;;;;;;8.30;5.25;;;;;;;;;;5049599;28;20036;-48
2023/01/24 17:47:22;;;;;;;9.50;5.82;;;;;;;;;;5047303;28;20400;-48
2023/01/24 17:49:48;;;;;;;9.65;6.10;;;;;;;;;;5048152;28;20458;-49
2023/01/24 17:52:14;;;;;;;9.20;5.97;;;;;;;;;;5048036;28;20090;-49
2023/01/24 17:54:40;;;;;;;11.65;6.00;;;;;;;;;;5049409;28;20120;-48
2023/01/24 17:57:06;;;;;;;9.25;5.85;;;;;;;;;;5048752;28;20029;-49
2023/01/24 17:59:33;;;;;;;10.38;6.32;;;;;;;;;;5048346;28;20028;-47
2023/01/24 18:01:59;;;;;;;9.50;5.88;;;;;;;;;;5048296;28;20021;-49
2023/01/24 18:04:25;;;;;;;10.43;6.18;;;;;;;;;;5048513;28;20503;-48
2023/01/24 18:06:51;;;;;;;10.18;6.28;;;;;;;;;;5048506;28;20036;-48
2023/01/24 18:09:17;;;;;;;8.52;5.60;;;;;;;;;;5047978;28;20269;-50
2023/01/24 18:11:43;;;;;;;8.23;5.30;;;;;;;;;;5048492;28;20037;-50
2023/01/24 18:14:10;;;;;;;8.90;5.80;;;;;;;;;;5044750;28;20033;-49
2023/01/24 18:16:36;;;;;;;10.23;5.88;;;;;;;;;;5028020;28;20152;-48
2023/01/24 18:19:02;;;;;;;9.80;6.10;;;;;;;;;;5028064;28;20104;-49
2023/01/24 18:21:29;;;;;;;10.10;6.30;;;;;;;;;;5027951;28;20034;-51
2023/01/24 18:23:56;;;;;;;8.55;5.30;;;;;;;;;;5028494;28;20021;-47
2023/01/24 18:26:23;;;;;;;8.60;5.43;;;;;;;;;;5028482;28;20496;-47
2023/01/24 18:28:50;;;;;;;9.05;5.45;;;;;;;;;;5028095;28;20068;-47
2023/01/24 18:31:16;;;;;;;9.43;5.57;;;;;;;;;;5027763;28;20026;-47
2023/01/24 18:33:43;;;;;;;9.52;6.00;;;;;;;;;;5027784;28;20447;-51
2023/01/24 18:36:10;;;;;;;8.35;5.28;;;;;;;;;;5027565;28;20033;-48
2023/01/24 18:38:38;;;;;;;9.13;5.57;;;;;;;;;;5028025;28;20022;-47
2023/01/24 18:41:04;;;;;;;8.30;4.93;;;;;;;;;;5026363;28;20475;-48
2023/01/24 18:43:30;;;;;;;7.93;4.85;;;;;;;;;;5027618;28;20438;-48
2023/01/24 18:46:00;;;;;;;8.00;5.22;;;;;;;;;;5028222;28;20538;-49
2023/01/24 18:48:26;;;;;;;8.45;5.25;;;;;;;;;;5027933;28;20532;-51
2023/01/24 18:50:53;;;;;;;9.02;5.05;;;;;;;;;;5027991;28;20040;-48
2023/01/24 18:53:19;;;;;;;9.95;5.57;;;;;;;;;;5027353;28;20083;-47
2023/01/24 18:55:46;;;;;;;8.95;5.55;;;;;;;;;;5027511;28;20022;-48
2023/01/24 18:58:13;;;;;;;9.32;5.50;;;;;;;;;;5027449;28;20025;-49
2023/01/24 19:00:39;;;;;;;10.65;6.22;;;;;;;;;;5027253;28;20061;-49
2023/01/24 19:03:05;;;;;;;9.95;6.15;;;;;;;;;;5027269;28;20100;-49
2023/01/24 19:05:33;;;;;;;11.10;6.75;;;;;;;;;;5027200;28;20051;-51
2023/01/24 19:07:59;;;;;;;12.48;7.20;;;;;;;;;;5027299;28;20064;-49
2023/01/24 19:10:25;;;;;;;13.13;8.48;;;;;;;;;;5027668;28;20057;-50
2023/01/24 19:12:51;;;;;;;13.00;7.70;;;;;;;;;;5026921;28;20500;-47
2023/01/24 19:15:18;;;;;;;14.35;8.80;;;;;;;;;;5027035;28;20464;-49
2023/01/24 19:17:48;;;;;;;13.18;8.82;;;;;;;;;;5027282;28;20021;-51
2023/01/24 19:20:16;;;;;;;13.32;8.63;;;;;;;;;;5026999;28;20108;-49
2023/01/24 19:22:42;;;;;;;14.73;9.25;;;;;;;;;;5026857;28;20104;-48
2023/01/24 19:25:08;;;;;;;12.77;8.45;;;;;;;;;;5026696;28;20140;-49
2023/01/24 19:27:34;;;;;;;16.75;9.88;;;;;;;;;;5027099;28;20029;-47
2023/01/24 19:30:00;;;;;;;13.85;8.52;;;;;;;;;;5026814;28;20044;-50
2023/01/24 19:32:26;;;;;;;13.50;8.68;;;;;;;;;;5027494;28;20105;-48
2023/01/24 19:34:52;;;;;;;13.25;8.60;;;;;;;;;;5027464;28;20538;-47
2023/01/24 19:37:18;;;;;;;12.43;7.88;;;;;;;;;;5026397;28;20029;-47
2023/01/24 19:39:44;;;;;;;13.38;8.50;;;;;;;;;;5026632;28;20121;-50
2023/01/24 19:42:11;;;;;;;11.30;7.68;;;;;;;;;;5026993;28;20431;-48
2023/01/24 19:44:37;;;;;;;12.38;7.53;;;;;;;;;;5026478;28;20029;-50
2023/01/24 19:47:03;;;;;;;9.98;6.35;;;;;;;;;;5026313;28;20036;-48
2023/01/24 19:49:29;;;;;;;10.85;6.60;;;;;;;;;;5026537;28;20522;-48
2023/01/24 19:51:55;;;;;;;10.45;6.43;;;;;;;;;;5026732;28;20112;-50
2023/01/24 19:54:21;;;;;;;11.40;7.25;;;;;;;;;;5026306;28;20025;-51
2023/01/24 19:56:50;;;;;;;11.98;7.28;;;;;;;;;;5026543;28;20029;-50
2023/01/24 19:59:18;;;;;;;12.40;7.30;;;;;;;;;;5025256;28;20026;-51